Silver Cloud — C6MQ5 — position and weather

sailwx.info

Track history (hours):
 
Tides and Currents Weather Stations Pressure Air Temp Water Temp Dewpoint Dewpoint Depression Visibility Wind Speed Wind Dir Waves Ship Positions

Silver Cloud

Operator: V Ships Leisure SAM

Last reported at 2017-Aug-26 09:49 UTC. Time now 2017-Sep-26 04:01 UTC.
Position N 35°53' E 014°31'.
Warning: this ship's position is 30 days out of date.

Length 156 m; draft 5.7 m.

Type: Passenger vessel. MMSI: 309027000.

Date/timePositionNaut miles runAvg speedWind from/ knotsBaromVisibWave heightAir tempDewpointWater temp
2017-Aug-26 09:49N 35°53' E 014°31'0 0.0
2017-Aug-26 09:30N 35°53' E 014°31'0 0.0
2017-Aug-26 09:00N 35°53' E 014°31'0 0.0
2017-Aug-26 08:30N 35°53' E 014°31'0 0.0
2017-Aug-26 08:00N 35°53' E 014°31'0 0.0
2017-Aug-26 07:30N 35°53' E 014°31'0 0.0
2017-Aug-26 07:00N 35°53' E 014°31'0 0.0
2017-Aug-26 06:30N 35°53' E 014°31'0 0.4
2017-Aug-26 06:00N 35°53' E 014°31'1 1.6
2017-Aug-26 05:24N 35°54' E 014°31'2 5.5
2017-Aug-26 05:00N 35°56' E 014°33'3 7.0
2017-Aug-26 04:30N 35°59' E 014°31'611.5
2017-Aug-26 04:00N 36°03' E 014°26'713.3
2017-Aug-26 03:30N 36°07' E 014°20'713.9
2017-Aug-26 03:00N 36°11' E 014°12'714.2
2017-Aug-26 02:30N 36°14' E 014°05'714.2
2017-Aug-26 02:00N 36°17' E 013°57'713.7
2017-Aug-26 01:30N 36°20' E 013°49'713.6
2017-Aug-26 01:00N 36°23' E 013°41'713.7
2017-Aug-26 00:30N 36°26' E 013°34'713.9
2017-Aug-26 00:00N 36°29' E 013°26'714.0
2017-Aug-25 23:30N 36°32' E 013°18'713.8
2017-Aug-25 23:01N 36°35' E 013°11'713.7
2017-Aug-25 22:30N 36°38' E 013°03'713.7
2017-Aug-25 22:00N 36°41' E 012°55'713.7
2017-Aug-25 21:30N 36°44' E 012°48'713.7
2017-Aug-25 21:01N 36°47' E 012°40'713.6
2017-Aug-25 20:30N 36°51' E 012°32'713.7
2017-Aug-25 20:01N 36°54' E 012°25'713.8
2017-Aug-25 19:30N 36°56' E 012°17'713.8
2017-Aug-25 19:00N 36°59' E 012°09'713.8
2017-Aug-25 18:30N 37°03' E 012°01'714.1
2017-Aug-25 18:00N 37°05' E 011°53'814.9
2017-Aug-25 17:30N 37°09' E 011°45'815.2
2017-Aug-25 17:00N 37°13' E 011°37'714.3
2017-Aug-25 16:30N 37°16' E 011°28'714.2
2017-Aug-25 16:00N 37°19' E 011°21'714.5
2017-Aug-25 15:30N 37°22' E 011°12'714.7
2017-Aug-25 15:00N 37°25' E 011°04'1514.6
2017-Aug-25 14:00N 37°28' E 010°46'714.5
2017-Aug-25 13:30N 37°30' E 010°37'7315.4
2017-Aug-25 08:47N 37°36' E 009°06'2816.6
2017-Aug-25 07:07N 37°38' E 008°31'216.6
2017-Aug-25 07:00N 37°38' E 008°29'816.7
2017-Aug-25 06:30N 37°38' E 008°18'816.9
2017-Aug-25 06:00N 37°39' E 008°08'916.9
2017-Aug-25 05:30N 37°39' E 007°57'816.7
2017-Aug-25 05:00N 37°39' E 007°46'816.5
2017-Aug-25 04:30N 37°40' E 007°36'1116.5
2017-Aug-25 03:51N 37°41' E 007°22'616.5
2017-Aug-25 03:30N 37°41' E 007°15'3916.7
2017-Aug-25 01:10N 37°43' E 006°26'316.7
2017-Aug-25 00:59N 37°43' E 006°22'1416.8
2017-Aug-25 00:08N 37°44' E 006°04'316.6
2017-Aug-24 23:58N 37°44' E 006°00'1016.5
2017-Aug-24 23:20N 37°44' E 005°47'1516.4
2017-Aug-24 22:25N 37°45' E 005°28'1716.4
2017-Aug-24 21:22N 37°46' E 005°06'1216.8
2017-Aug-24 20:39N 37°47' E 004°51'616.7
2017-Aug-24 20:19N 37°47' E 004°44'516.6
2017-Aug-24 20:00N 37°47' E 004°38'816.6
2017-Aug-24 19:30N 37°48' E 004°27'816.4
2017-Aug-24 19:00N 37°48' E 004°17'816.3
2017-Aug-24 18:30N 37°49' E 004°07'816.3
2017-Aug-24 18:00N 37°49' E 003°56'816.4
2017-Aug-24 17:30N 37°50' E 003°46'816.3
2017-Aug-24 17:00N 37°50' E 003°36'916.3
2017-Aug-24 16:27N 37°50' E 003°24'916.3
2017-Aug-24 15:52N 37°51' E 003°12'716.4
2017-Aug-24 15:28N 37°51' E 003°04'1116.6
2017-Aug-24 14:48N 37°52' E 002°50'516.9
2017-Aug-24 14:29N 37°52' E 002°43'1216.9
2017-Aug-24 13:46N 37°52' E 002°28'516.7
2017-Aug-24 13:29N 37°50' E 002°22'1016.8
2017-Aug-24 12:54N 37°46' E 002°11'1016.6
2017-Aug-24 12:19N 37°43' E 001°60'516.6
2017-Aug-24 12:00N 37°41' E 001°53'816.5
2017-Aug-24 11:30N 37°38' E 001°44'1016.5
2017-Aug-24 10:53N 37°34' E 001°32'716.5
2017-Aug-24 10:28N 37°31' E 001°24'816.5
2017-Aug-24 10:00N 37°28' E 001°15'1216.3
2017-Aug-24 09:17N 37°24' E 001°01'516.2
2017-Aug-24 09:00N 37°22' E 000°56'816.3
2017-Aug-24 08:30N 37°19' E 000°46'916.9
2017-Aug-24 07:58N 37°15' E 000°36'816.9
2017-Aug-24 07:30N 37°12' E 000°27'917.2
2017-Aug-24 07:00N 37°08' E 000°17'917.2
2017-Aug-24 06:30N 37°05' E 000°07'917.1
2017-Aug-24 06:00N 37°03' W 000°03'1817.1
2017-Aug-24 04:59N 36°56' W 000°23'916.8
2017-Aug-24 04:28N 36°53' W 000°33'816.5
2017-Aug-24 04:00N 36°50' W 000°42'816.5
2017-Aug-24 03:30N 36°47' W 000°52'916.9
2017-Aug-24 02:59N 36°43' W 001°02'817.1
2017-Aug-24 02:30N 36°40' W 001°11'817.0
2017-Aug-24 02:00N 36°37' W 001°21'817.1
2017-Aug-24 01:30N 36°33' W 001°31'917.3
2017-Aug-24 01:00N 36°30' W 001°41'4118.0
2017-Aug-23 22:43N 36°20' W 002°30'517.8
2017-Aug-23 22:28N 36°20' W 002°36'12917.5
2017-Aug-23 15:06N 36°00' W 005°14'217.6
2017-Aug-23 15:00N 35°60' W 005°16'917.4
2017-Aug-23 14:30N 35°57' W 005°26'12816.0
2017-Aug-23 06:29N 36°17' W 008°03'817.2
2017-Aug-23 06:00N 36°20' W 008°13'917.2
2017-Aug-23 05:29N 36°23' W 008°23'817.0
2017-Aug-23 05:01N 36°25' W 008°33'816.8
2017-Aug-23 04:30N 36°27' W 008°43'816.8
2017-Aug-23 04:01N 36°29' W 008°53'917.1
2017-Aug-23 03:30N 36°31' W 009°04'917.3
2017-Aug-23 02:58N 36°33' W 009°15'816.5
2017-Aug-23 02:29N 36°38' W 009°23'817.5
2017-Aug-23 02:00N 36°44' W 009°30'916.9
2017-Aug-23 01:28N 36°52' W 009°35'817.3
2017-Aug-23 01:00N 36°60' W 009°37'917.4
2017-Aug-23 00:30N 37°08' W 009°40'917.2
2017-Aug-23 00:00N 37°17' W 009°43'917.4
2017-Aug-22 23:30N 37°25' W 009°46'917.2
2017-Aug-22 23:00N 37°33' W 009°49'917.2
2017-Aug-22 22:31N 37°42' W 009°51'917.3
2017-Aug-22 22:01N 37°50' W 009°53'917.1
2017-Aug-22 21:30N 37°59' W 009°54'917.5
2017-Aug-22 20:58N 38°08' W 009°56'817.3
2017-Aug-22 20:31N 38°16' W 009°59'917.4
2017-Aug-22 20:01N 38°24' W 010°01'917.6
2017-Aug-22 19:31N 38°33' W 010°04'917.4
2017-Aug-22 19:01N 38°41' W 010°06'917.1
2017-Aug-22 18:30N 38°50' W 010°06'917.7
2017-Aug-22 18:00N 38°59' W 010°06'917.4
2017-Aug-22 17:31N 39°07' W 010°06'917.6
2017-Aug-22 17:01N 39°16' W 010°06'917.4
2017-Aug-22 16:31N 39°25' W 010°06'917.4
2017-Aug-22 16:01N 39°34' W 010°06'917.4
2017-Aug-22 15:30N 39°42' W 010°06'917.2
2017-Aug-22 15:01N 39°51' W 010°06'917.3
2017-Aug-22 14:30N 39°60' W 010°06'816.8
2017-Aug-22 14:00N 40°08' W 010°06'917.0
2017-Aug-22 13:29N 40°17' W 010°07'817.1
2017-Aug-22 13:00N 40°25' W 010°07'917.4
2017-Aug-22 12:29N 40°34' W 010°07'817.5
2017-Aug-22 12:00N 40°43' W 010°08'917.4
2017-Aug-22 11:30N 40°51' W 010°08'917.7
2017-Aug-22 11:00N 41°00' W 010°07'917.3
2017-Aug-22 10:30N 41°09' W 010°09'916.6
2017-Aug-22 09:57N 41°18' W 010°09'817.0
2017-Aug-22 09:30N 41°26' W 010°09'917.4
2017-Aug-22 08:58N 41°35' W 010°09'817.5
2017-Aug-22 08:30N 41°43' W 010°09'1217.7
2017-Aug-22 07:51N 41°55' W 010°08'1217.4
2017-Aug-22 07:08N 42°07' W 010°07'217.6
2017-Aug-22 07:00N 42°09' W 010°06'917.5
2017-Aug-22 06:29N 42°18' W 010°06'3917.0
2017-Aug-22 04:13N 42°57' W 010°07'416.9
2017-Aug-22 04:00N 43°01' W 010°06'917.2
2017-Aug-22 03:30N 43°09' W 010°06'1016.5
2017-Aug-22 02:56N 43°19' W 010°04'916.9
2017-Aug-22 02:25N 43°26' W 009°59'6916.9
2017-Aug-21 22:21N 44°27' W 009°14'616.7
2017-Aug-21 22:00N 44°32' W 009°10'28017.1
2017-Aug-21 05:40N 48°39' W 006°01'2615.8
2017-Aug-21 04:03N 48°60' W 005°37'115.2
2017-Aug-21 03:58N 49°00' W 005°36'1215.3
2017-Aug-21 03:12N 49°06' W 005°20'315.4
2017-Aug-21 03:00N 49°07' W 005°16'815.5
2017-Aug-21 02:29N 49°11' W 005°05'815.8
2017-Aug-21 02:01N 49°15' W 004°55'816.3
2017-Aug-21 01:30N 49°19' W 004°44'1717.2
2017-Aug-21 00:32N 49°28' W 004°22'117.7
2017-Aug-21 00:30N 49°28' W 004°22'1418.0
2017-Aug-20 23:42N 49°36' W 004°03'518.4
2017-Aug-20 23:24N 49°38' W 003°55'818.4
2017-Aug-20 22:57N 49°43' W 003°44'818.1
2017-Aug-20 22:30N 49°47' W 003°34'917.7
2017-Aug-20 22:01N 49°51' W 003°22'917.2
2017-Aug-20 21:31N 49°55' W 003°10'816.7
2017-Aug-20 21:01N 49°58' W 002°58'815.9
2017-Aug-20 20:30N 50°01' W 002°46'2914.4
2017-Aug-20 18:30N 50°09' W 002°03'713.7
2017-Aug-20 18:00N 50°10' W 001°52'714.1
2017-Aug-20 17:30N 50°12' W 001°42'714.9
2017-Aug-20 17:01N 50°14' W 001°31'815.8
2017-Aug-20 16:30N 50°16' W 001°19'3618.1
2017-Aug-20 14:32N 50°26' W 000°25'118.9
2017-Aug-20 14:30N 50°26' W 000°24'918.7
2017-Aug-20 14:00N 50°28' W 000°10'918.5
2017-Aug-20 13:30N 50°31' E 000°04'918.4
2017-Aug-20 13:00N 50°34' E 000°18'918.1
2017-Aug-20 12:30N 50°36' E 000°32'917.5
2017-Aug-20 12:00N 50°39' E 000°44'816.8
2017-Aug-20 11:30N 50°44' E 000°56'2315.4
2017-Aug-20 10:01N 50°59' E 001°23'515.5
2017-Aug-20 09:43N 51°02' E 001°28'315.9
2017-Aug-20 09:30N 51°05' E 001°31'816.1
2017-Aug-20 09:01N 51°10' E 001°40'816.9
2017-Aug-20 08:31N 51°17' E 001°48'918.3
2017-Aug-20 08:00N 51°25' E 001°55'918.6
2017-Aug-20 07:30N 51°32' E 002°05'1018.7
2017-Aug-20 06:59N 51°40' E 002°15'8816.4
2017-Aug-20 01:38N 52°48' E 003°45'215.2
2017-Aug-20 01:29N 52°50' E 003°47'16815.6
2017-Aug-19 14:40N 55°17' E 006°06'1015.8
2017-Aug-19 14:00N 55°27' E 006°14'815.6
2017-Aug-19 13:30N 55°33' E 006°22'19515.1
2017-Aug-19 00:38N 57°51' E 010°33'316.0
2017-Aug-19 00:29N 57°51' E 010°38'815.5
2017-Aug-18 23:58N 57°47' E 010°51'816.1
2017-Aug-18 23:30N 57°42' E 011°01'816.7
2017-Aug-18 23:00N 57°36' E 011°13'917.5
2017-Aug-18 22:30N 57°30' E 011°24'816.9
2017-Aug-18 22:00N 57°22' E 011°31'917.5
2017-Aug-18 21:30N 57°14' E 011°36'917.8
2017-Aug-18 20:59N 57°05' E 011°42'6316.0
2017-Aug-18 17:01N 56°08' E 012°31'017.9
2017-Aug-18 17:00N 56°08' E 012°32'817.0
2017-Aug-18 16:31N 56°01' E 012°41'816.5
2017-Aug-18 16:00N 55°53' E 012°44'816.3
2017-Aug-18 15:30N 55°45' E 012°41'3 5.1
2017-Aug-18 14:59N 55°43' E 012°38'0 0.0
2017-Aug-18 14:29N 55°43' E 012°38'0 0.0
2017-Aug-18 13:29N 55°43' E 012°38'0 0.0
2017-Aug-18 12:59N 55°43' E 012°38'0 0.0
2017-Aug-18 12:29N 55°43' E 012°38'0 0.0
2017-Aug-18 11:59N 55°43' E 012°38'0 0.0
2017-Aug-18 11:29N 55°43' E 012°38'0 0.0
2017-Aug-18 10:59N 55°43' E 012°38'0 0.0
2017-Aug-18 10:29N 55°43' E 012°38'0 0.0
2017-Aug-18 09:59N 55°43' E 012°38'0 0.0
2017-Aug-18 09:29N 55°43' E 012°38'0 0.0
2017-Aug-18 08:59N 55°43' E 012°38'0 0.0
2017-Aug-18 08:29N 55°43' E 012°38'0 0.0
2017-Aug-18 07:59N 55°43' E 012°38'0 0.0
2017-Aug-18 07:29N 55°43' E 012°38'0 0.0
2017-Aug-18 06:59N 55°43' E 012°38'0 0.0
2017-Aug-18 06:29N 55°43' E 012°38'0 0.0
2017-Aug-18 05:59N 55°43' E 012°38'0 0.0
2017-Aug-18 05:29N 55°43' E 012°38'0 0.0
2017-Aug-18 04:59N 55°43' E 012°38'0 0.0
2017-Aug-18 04:29N 55°43' E 012°38'0 0.0
2017-Aug-18 03:59N 55°43' E 012°38'0 0.0
2017-Aug-18 03:29N 55°43' E 012°38'0 0.0
2017-Aug-18 03:00N 55°43' E 012°38'2 3.7
2017-Aug-18 02:31N 55°44' E 012°41'510.4
2017-Aug-18 02:00N 55°39' E 012°42'611.6
2017-Aug-18 01:31N 55°33' E 012°43'4 7.4
2017-Aug-18 01:00N 55°29' E 012°43'510.1
2017-Aug-18 00:30N 55°24' E 012°41'510.3
2017-Aug-18 00:00N 55°19' E 012°41'510.1
2017-Aug-17 23:30N 55°17' E 012°49'510.4
2017-Aug-17 22:59N 55°15' E 012°58'5 9.6
2017-Aug-17 22:25N 55°11' E 013°04'410.0
2017-Aug-17 22:00N 55°08' E 013°08'15 9.8
2017-Aug-17 20:29N 54°56' E 013°24'5 9.8
2017-Aug-17 20:00N 54°52' E 013°29'5 9.9
2017-Aug-17 19:30N 54°48' E 013°33'5 9.9
2017-Aug-17 19:00N 54°43' E 013°38'5 9.8
2017-Aug-17 18:30N 54°39' E 013°42'5 9.7
2017-Aug-17 18:00N 54°35' E 013°44'4 8.8
2017-Aug-17 17:30N 54°30' E 013°43'4 8.5
2017-Aug-17 17:00N 54°28' E 013°36'1 0.1
2017-Aug-17 05:38N 54°29' E 013°35'0 1.0
2017-Aug-17 05:30N 54°29' E 013°35'3 5.9
2017-Aug-17 05:00N 54°28' E 013°40'714.0
2017-Aug-17 04:30N 54°28' E 013°52'713.1
2017-Aug-17 03:57N 54°29' E 014°05'714.1
2017-Aug-17 03:25N 54°31' E 014°17'614.8
2017-Aug-17 03:00N 54°32' E 014°28'715.0
2017-Aug-17 02:30N 54°34' E 014°40'815.1
2017-Aug-17 02:00N 54°36' E 014°52'815.2
2017-Aug-17 01:30N 54°37' E 015°05'815.6
2017-Aug-17 01:01N 54°39' E 015°18'815.5
2017-Aug-17 00:30N 54°41' E 015°32'815.6
2017-Aug-17 00:00N 54°43' E 015°45'815.4
2017-Aug-16 23:30N 54°44' E 015°58'816.4
2017-Aug-16 23:00N 54°46' E 016°11'816.1
2017-Aug-16 22:29N 54°48' E 016°26'1016.1
2017-Aug-16 21:51N 54°49' E 016°43'1016.3
2017-Aug-16 21:13N 54°52' E 017°00'3816.2
2017-Aug-16 18:51N 54°57' E 018°07'715.9
2017-Aug-16 18:26N 54°57' E 018°18'716.3
2017-Aug-16 18:00N 54°57' E 018°30'816.2
2017-Aug-16 17:30N 54°54' E 018°43'816.2
2017-Aug-16 17:00N 54°49' E 018°54'714.3
2017-Aug-16 16:30N 54°42' E 018°59'815.9
2017-Aug-16 16:00N 54°35' E 018°53'815.7
2017-Aug-16 15:30N 54°29' E 018°44'5 9.2
2017-Aug-16 15:00N 54°25' E 018°39'1 1.7
2017-Aug-16 14:29N 54°24' E 018°40'0 0.0
2017-Aug-16 13:59N 54°24' E 018°40'0 0.0
2017-Aug-16 13:29N 54°24' E 018°40'0 0.0
2017-Aug-16 12:59N 54°24' E 018°40'0 0.0
2017-Aug-16 12:29N 54°24' E 018°40'0 0.0
2017-Aug-16 11:59N 54°24' E 018°40'0 0.0
2017-Aug-16 11:29N 54°24' E 018°40'0 0.0
2017-Aug-16 10:59N 54°24' E 018°40'0 0.0
2017-Aug-16 10:29N 54°24' E 018°40'0 0.0
2017-Aug-16 09:59N 54°24' E 018°40'  
Track history (hours):
 
Tides and Currents Weather Stations Pressure Air Temp Water Temp Dewpoint Dewpoint Depression Visibility Wind Speed Wind Dir Waves Ship Positions

Silver Cloud

Operator: V Ships Leisure SAM

Last reported at 2017-Aug-26 09:49 UTC. Time now 2017-Sep-26 04:01 UTC.
Position N 35°53' E 014°31'.
Warning: this ship's position is 30 days out of date.

Length 156 m; draft 5.7 m.

Type: Passenger vessel. MMSI: 309027000.

Date/timePositionNaut miles runAvg speedWind from/ knotsBaromVisibWave heightAir tempDewpointWater temp
2017-Aug-26 09:49N 35°53' E 014°31'0 0.0
2017-Aug-26 09:30N 35°53' E 014°31'0 0.0
2017-Aug-26 09:00N 35°53' E 014°31'0 0.0
2017-Aug-26 08:30N 35°53' E 014°31'0 0.0
2017-Aug-26 08:00N 35°53' E 014°31'0 0.0
2017-Aug-26 07:30N 35°53' E 014°31'0 0.0
2017-Aug-26 07:00N 35°53' E 014°31'0 0.0
2017-Aug-26 06:30N 35°53' E 014°31'0 0.4
2017-Aug-26 06:00N 35°53' E 014°31'1 1.6
2017-Aug-26 05:24N 35°54' E 014°31'2 5.5
2017-Aug-26 05:00N 35°56' E 014°33'3 7.0
2017-Aug-26 04:30N 35°59' E 014°31'611.5
2017-Aug-26 04:00N 36°03' E 014°26'713.3
2017-Aug-26 03:30N 36°07' E 014°20'713.9
2017-Aug-26 03:00N 36°11' E 014°12'714.2
2017-Aug-26 02:30N 36°14' E 014°05'714.2
2017-Aug-26 02:00N 36°17' E 013°57'713.7
2017-Aug-26 01:30N 36°20' E 013°49'713.6
2017-Aug-26 01:00N 36°23' E 013°41'713.7
2017-Aug-26 00:30N 36°26' E 013°34'713.9
2017-Aug-26 00:00N 36°29' E 013°26'714.0
2017-Aug-25 23:30N 36°32' E 013°18'713.8
2017-Aug-25 23:01N 36°35' E 013°11'713.7
2017-Aug-25 22:30N 36°38' E 013°03'713.7
2017-Aug-25 22:00N 36°41' E 012°55'713.7
2017-Aug-25 21:30N 36°44' E 012°48'713.7
2017-Aug-25 21:01N 36°47' E 012°40'713.6
2017-Aug-25 20:30N 36°51' E 012°32'713.7
2017-Aug-25 20:01N 36°54' E 012°25'713.8
2017-Aug-25 19:30N 36°56' E 012°17'713.8
2017-Aug-25 19:00N 36°59' E 012°09'713.8
2017-Aug-25 18:30N 37°03' E 012°01'714.1
2017-Aug-25 18:00N 37°05' E 011°53'814.9
2017-Aug-25 17:30N 37°09' E 011°45'815.2
2017-Aug-25 17:00N 37°13' E 011°37'714.3
2017-Aug-25 16:30N 37°16' E 011°28'714.2
2017-Aug-25 16:00N 37°19' E 011°21'714.5
2017-Aug-25 15:30N 37°22' E 011°12'714.7
2017-Aug-25 15:00N 37°25' E 011°04'1514.6
2017-Aug-25 14:00N 37°28' E 010°46'714.5
2017-Aug-25 13:30N 37°30' E 010°37'7315.4
2017-Aug-25 08:47N 37°36' E 009°06'2816.6
2017-Aug-25 07:07N 37°38' E 008°31'216.6
2017-Aug-25 07:00N 37°38' E 008°29'816.7
2017-Aug-25 06:30N 37°38' E 008°18'816.9
2017-Aug-25 06:00N 37°39' E 008°08'916.9
2017-Aug-25 05:30N 37°39' E 007°57'816.7
2017-Aug-25 05:00N 37°39' E 007°46'816.5
2017-Aug-25 04:30N 37°40' E 007°36'1116.5
2017-Aug-25 03:51N 37°41' E 007°22'616.5
2017-Aug-25 03:30N 37°41' E 007°15'3916.7
2017-Aug-25 01:10N 37°43' E 006°26'316.7
2017-Aug-25 00:59N 37°43' E 006°22'1416.8
2017-Aug-25 00:08N 37°44' E 006°04'316.6
2017-Aug-24 23:58N 37°44' E 006°00'1016.5
2017-Aug-24 23:20N 37°44' E 005°47'1516.4
2017-Aug-24 22:25N 37°45' E 005°28'1716.4
2017-Aug-24 21:22N 37°46' E 005°06'1216.8
2017-Aug-24 20:39N 37°47' E 004°51'616.7
2017-Aug-24 20:19N 37°47' E 004°44'516.6
2017-Aug-24 20:00N 37°47' E 004°38'816.6
2017-Aug-24 19:30N 37°48' E 004°27'816.4
2017-Aug-24 19:00N 37°48' E 004°17'816.3
2017-Aug-24 18:30N 37°49' E 004°07'816.3
2017-Aug-24 18:00N 37°49' E 003°56'816.4
2017-Aug-24 17:30N 37°50' E 003°46'816.3
2017-Aug-24 17:00N 37°50' E 003°36'916.3
2017-Aug-24 16:27N 37°50' E 003°24'916.3
2017-Aug-24 15:52N 37°51' E 003°12'716.4
2017-Aug-24 15:28N 37°51' E 003°04'1116.6
2017-Aug-24 14:48N 37°52' E 002°50'516.9
2017-Aug-24 14:29N 37°52' E 002°43'1216.9
2017-Aug-24 13:46N 37°52' E 002°28'516.7
2017-Aug-24 13:29N 37°50' E 002°22'1016.8
2017-Aug-24 12:54N 37°46' E 002°11'1016.6
2017-Aug-24 12:19N 37°43' E 001°60'516.6
2017-Aug-24 12:00N 37°41' E 001°53'816.5
2017-Aug-24 11:30N 37°38' E 001°44'1016.5
2017-Aug-24 10:53N 37°34' E 001°32'716.5
2017-Aug-24 10:28N 37°31' E 001°24'816.5
2017-Aug-24 10:00N 37°28' E 001°15'1216.3
2017-Aug-24 09:17N 37°24' E 001°01'516.2
2017-Aug-24 09:00N 37°22' E 000°56'816.3
2017-Aug-24 08:30N 37°19' E 000°46'916.9
2017-Aug-24 07:58N 37°15' E 000°36'816.9
2017-Aug-24 07:30N 37°12' E 000°27'917.2
2017-Aug-24 07:00N 37°08' E 000°17'917.2
2017-Aug-24 06:30N 37°05' E 000°07'917.1
2017-Aug-24 06:00N 37°03' W 000°03'1817.1
2017-Aug-24 04:59N 36°56' W 000°23'916.8
2017-Aug-24 04:28N 36°53' W 000°33'816.5
2017-Aug-24 04:00N 36°50' W 000°42'816.5
2017-Aug-24 03:30N 36°47' W 000°52'916.9
2017-Aug-24 02:59N 36°43' W 001°02'817.1
2017-Aug-24 02:30N 36°40' W 001°11'817.0
2017-Aug-24 02:00N 36°37' W 001°21'817.1
2017-Aug-24 01:30N 36°33' W 001°31'917.3
2017-Aug-24 01:00N 36°30' W 001°41'4118.0
2017-Aug-23 22:43N 36°20' W 002°30'517.8
2017-Aug-23 22:28N 36°20' W 002°36'12917.5
2017-Aug-23 15:06N 36°00' W 005°14'217.6
2017-Aug-23 15:00N 35°60' W 005°16'917.4
2017-Aug-23 14:30N 35°57' W 005°26'12816.0
2017-Aug-23 06:29N 36°17' W 008°03'817.2
2017-Aug-23 06:00N 36°20' W 008°13'917.2
2017-Aug-23 05:29N 36°23' W 008°23'817.0
2017-Aug-23 05:01N 36°25' W 008°33'816.8
2017-Aug-23 04:30N 36°27' W 008°43'816.8
2017-Aug-23 04:01N 36°29' W 008°53'917.1
2017-Aug-23 03:30N 36°31' W 009°04'917.3
2017-Aug-23 02:58N 36°33' W 009°15'816.5
2017-Aug-23 02:29N 36°38' W 009°23'817.5
2017-Aug-23 02:00N 36°44' W 009°30'916.9
2017-Aug-23 01:28N 36°52' W 009°35'817.3
2017-Aug-23 01:00N 36°60' W 009°37'917.4
2017-Aug-23 00:30N 37°08' W 009°40'917.2
2017-Aug-23 00:00N 37°17' W 009°43'917.4
2017-Aug-22 23:30N 37°25' W 009°46'917.2
2017-Aug-22 23:00N 37°33' W 009°49'917.2
2017-Aug-22 22:31N 37°42' W 009°51'917.3
2017-Aug-22 22:01N 37°50' W 009°53'917.1
2017-Aug-22 21:30N 37°59' W 009°54'917.5
2017-Aug-22 20:58N 38°08' W 009°56'817.3
2017-Aug-22 20:31N 38°16' W 009°59'917.4
2017-Aug-22 20:01N 38°24' W 010°01'917.6
2017-Aug-22 19:31N 38°33' W 010°04'917.4
2017-Aug-22 19:01N 38°41' W 010°06'917.1
2017-Aug-22 18:30N 38°50' W 010°06'917.7
2017-Aug-22 18:00N 38°59' W 010°06'917.4
2017-Aug-22 17:31N 39°07' W 010°06'917.6
2017-Aug-22 17:01N 39°16' W 010°06'917.4
2017-Aug-22 16:31N 39°25' W 010°06'917.4
2017-Aug-22 16:01N 39°34' W 010°06'917.4
2017-Aug-22 15:30N 39°42' W 010°06'917.2
2017-Aug-22 15:01N 39°51' W 010°06'917.3
2017-Aug-22 14:30N 39°60' W 010°06'816.8
2017-Aug-22 14:00N 40°08' W 010°06'917.0
2017-Aug-22 13:29N 40°17' W 010°07'817.1
2017-Aug-22 13:00N 40°25' W 010°07'917.4
2017-Aug-22 12:29N 40°34' W 010°07'817.5
2017-Aug-22 12:00N 40°43' W 010°08'917.4
2017-Aug-22 11:30N 40°51' W 010°08'917.7
2017-Aug-22 11:00N 41°00' W 010°07'917.3
2017-Aug-22 10:30N 41°09' W 010°09'916.6
2017-Aug-22 09:57N 41°18' W 010°09'817.0
2017-Aug-22 09:30N 41°26' W 010°09'917.4
2017-Aug-22 08:58N 41°35' W 010°09'817.5
2017-Aug-22 08:30N 41°43' W 010°09'1217.7
2017-Aug-22 07:51N 41°55' W 010°08'1217.4
2017-Aug-22 07:08N 42°07' W 010°07'217.6
2017-Aug-22 07:00N 42°09' W 010°06'917.5
2017-Aug-22 06:29N 42°18' W 010°06'3917.0
2017-Aug-22 04:13N 42°57' W 010°07'416.9
2017-Aug-22 04:00N 43°01' W 010°06'917.2
2017-Aug-22 03:30N 43°09' W 010°06'1016.5
2017-Aug-22 02:56N 43°19' W 010°04'916.9
2017-Aug-22 02:25N 43°26' W 009°59'6916.9
2017-Aug-21 22:21N 44°27' W 009°14'616.7
2017-Aug-21 22:00N 44°32' W 009°10'28017.1
2017-Aug-21 05:40N 48°39' W 006°01'2615.8
2017-Aug-21 04:03N 48°60' W 005°37'115.2
2017-Aug-21 03:58N 49°00' W 005°36'1215.3
2017-Aug-21 03:12N 49°06' W 005°20'315.4
2017-Aug-21 03:00N 49°07' W 005°16'815.5
2017-Aug-21 02:29N 49°11' W 005°05'815.8
2017-Aug-21 02:01N 49°15' W 004°55'816.3
2017-Aug-21 01:30N 49°19' W 004°44'1717.2
2017-Aug-21 00:32N 49°28' W 004°22'117.7
2017-Aug-21 00:30N 49°28' W 004°22'1418.0
2017-Aug-20 23:42N 49°36' W 004°03'518.4
2017-Aug-20 23:24N 49°38' W 003°55'818.4
2017-Aug-20 22:57N 49°43' W 003°44'818.1
2017-Aug-20 22:30N 49°47' W 003°34'917.7
2017-Aug-20 22:01N 49°51' W 003°22'917.2
2017-Aug-20 21:31N 49°55' W 003°10'816.7
2017-Aug-20 21:01N 49°58' W 002°58'815.9
2017-Aug-20 20:30N 50°01' W 002°46'2914.4
2017-Aug-20 18:30N 50°09' W 002°03'713.7
2017-Aug-20 18:00N 50°10' W 001°52'714.1
2017-Aug-20 17:30N 50°12' W 001°42'714.9
2017-Aug-20 17:01N 50°14' W 001°31'815.8
2017-Aug-20 16:30N 50°16' W 001°19'3618.1
2017-Aug-20 14:32N 50°26' W 000°25'118.9
2017-Aug-20 14:30N 50°26' W 000°24'918.7
2017-Aug-20 14:00N 50°28' W 000°10'918.5
2017-Aug-20 13:30N 50°31' E 000°04'918.4
2017-Aug-20 13:00N 50°34' E 000°18'918.1
2017-Aug-20 12:30N 50°36' E 000°32'917.5
2017-Aug-20 12:00N 50°39' E 000°44'816.8
2017-Aug-20 11:30N 50°44' E 000°56'2315.4
2017-Aug-20 10:01N 50°59' E 001°23'515.5
2017-Aug-20 09:43N 51°02' E 001°28'315.9
2017-Aug-20 09:30N 51°05' E 001°31'816.1
2017-Aug-20 09:01N 51°10' E 001°40'816.9
2017-Aug-20 08:31N 51°17' E 001°48'918.3
2017-Aug-20 08:00N 51°25' E 001°55'918.6
2017-Aug-20 07:30N 51°32' E 002°05'1018.7
2017-Aug-20 06:59N 51°40' E 002°15'8816.4
2017-Aug-20 01:38N 52°48' E 003°45'215.2
2017-Aug-20 01:29N 52°50' E 003°47'16815.6
2017-Aug-19 14:40N 55°17' E 006°06'1015.8
2017-Aug-19 14:00N 55°27' E 006°14'815.6
2017-Aug-19 13:30N 55°33' E 006°22'19515.1
2017-Aug-19 00:38N 57°51' E 010°33'316.0
2017-Aug-19 00:29N 57°51' E 010°38'815.5
2017-Aug-18 23:58N 57°47' E 010°51'816.1
2017-Aug-18 23:30N 57°42' E 011°01'816.7
2017-Aug-18 23:00N 57°36' E 011°13'917.5
2017-Aug-18 22:30N 57°30' E 011°24'816.9
2017-Aug-18 22:00N 57°22' E 011°31'917.5
2017-Aug-18 21:30N 57°14' E 011°36'917.8
2017-Aug-18 20:59N 57°05' E 011°42'6316.0
2017-Aug-18 17:01N 56°08' E 012°31'017.9
2017-Aug-18 17:00N 56°08' E 012°32'817.0
2017-Aug-18 16:31N 56°01' E 012°41'816.5
2017-Aug-18 16:00N 55°53' E 012°44'816.3
2017-Aug-18 15:30N 55°45' E 012°41'3 5.1
2017-Aug-18 14:59N 55°43' E 012°38'0 0.0
2017-Aug-18 14:29N 55°43' E 012°38'0 0.0
2017-Aug-18 13:29N 55°43' E 012°38'0 0.0
2017-Aug-18 12:59N 55°43' E 012°38'0 0.0
2017-Aug-18 12:29N 55°43' E 012°38'0 0.0
2017-Aug-18 11:59N 55°43' E 012°38'0 0.0
2017-Aug-18 11:29N 55°43' E 012°38'0 0.0
2017-Aug-18 10:59N 55°43' E 012°38'0 0.0
2017-Aug-18 10:29N 55°43' E 012°38'0 0.0
2017-Aug-18 09:59N 55°43' E 012°38'0 0.0
2017-Aug-18 09:29N 55°43' E 012°38'0 0.0
2017-Aug-18 08:59N 55°43' E 012°38'0 0.0
2017-Aug-18 08:29N 55°43' E 012°38'0 0.0
2017-Aug-18 07:59N 55°43' E 012°38'0 0.0
2017-Aug-18 07:29N 55°43' E 012°38'0 0.0
2017-Aug-18 06:59N 55°43' E 012°38'0 0.0
2017-Aug-18 06:29N 55°43' E 012°38'0 0.0
2017-Aug-18 05:59N 55°43' E 012°38'0 0.0
2017-Aug-18 05:29N 55°43' E 012°38'0 0.0
2017-Aug-18 04:59N 55°43' E 012°38'0 0.0
2017-Aug-18 04:29N 55°43' E 012°38'0 0.0
2017-Aug-18 03:59N 55°43' E 012°38'0 0.0
2017-Aug-18 03:29N 55°43' E 012°38'0 0.0
2017-Aug-18 03:00N 55°43' E 012°38'2 3.7
2017-Aug-18 02:31N 55°44' E 012°41'510.4
2017-Aug-18 02:00N 55°39' E 012°42'611.6
2017-Aug-18 01:31N 55°33' E 012°43'4 7.4
2017-Aug-18 01:00N 55°29' E 012°43'510.1
2017-Aug-18 00:30N 55°24' E 012°41'510.3
2017-Aug-18 00:00N 55°19' E 012°41'510.1
2017-Aug-17 23:30N 55°17' E 012°49'510.4
2017-Aug-17 22:59N 55°15' E 012°58'5 9.6
2017-Aug-17 22:25N 55°11' E 013°04'410.0
2017-Aug-17 22:00N 55°08' E 013°08'15 9.8
2017-Aug-17 20:29N 54°56' E 013°24'5 9.8
2017-Aug-17 20:00N 54°52' E 013°29'5 9.9
2017-Aug-17 19:30N 54°48' E 013°33'5 9.9
2017-Aug-17 19:00N 54°43' E 013°38'5 9.8
2017-Aug-17 18:30N 54°39' E 013°42'5 9.7
2017-Aug-17 18:00N 54°35' E 013°44'4 8.8
2017-Aug-17 17:30N 54°30' E 013°43'4 8.5
2017-Aug-17 17:00N 54°28' E 013°36'1 0.1
2017-Aug-17 05:38N 54°29' E 013°35'0 1.0
2017-Aug-17 05:30N 54°29' E 013°35'3 5.9
2017-Aug-17 05:00N 54°28' E 013°40'714.0
2017-Aug-17 04:30N 54°28' E 013°52'713.1
2017-Aug-17 03:57N 54°29' E 014°05'714.1
2017-Aug-17 03:25N 54°31' E 014°17'614.8
2017-Aug-17 03:00N 54°32' E 014°28'715.0
2017-Aug-17 02:30N 54°34' E 014°40'815.1
2017-Aug-17 02:00N 54°36' E 014°52'815.2
2017-Aug-17 01:30N 54°37' E 015°05'815.6
2017-Aug-17 01:01N 54°39' E 015°18'815.5
2017-Aug-17 00:30N 54°41' E 015°32'815.6
2017-Aug-17 00:00N 54°43' E 015°45'815.4
2017-Aug-16 23:30N 54°44' E 015°58'816.4
2017-Aug-16 23:00N 54°46' E 016°11'816.1
2017-Aug-16 22:29N 54°48' E 016°26'1016.1
2017-Aug-16 21:51N 54°49' E 016°43'1016.3
2017-Aug-16 21:13N 54°52' E 017°00'3816.2
2017-Aug-16 18:51N 54°57' E 018°07'715.9
2017-Aug-16 18:26N 54°57' E 018°18'716.3
2017-Aug-16 18:00N 54°57' E 018°30'816.2
2017-Aug-16 17:30N 54°54' E 018°43'816.2
2017-Aug-16 17:00N 54°49' E 018°54'714.3
2017-Aug-16 16:30N 54°42' E 018°59'815.9
2017-Aug-16 16:00N 54°35' E 018°53'815.7
2017-Aug-16 15:30N 54°29' E 018°44'5 9.2
2017-Aug-16 15:00N 54°25' E 018°39'1 1.7
2017-Aug-16 14:29N 54°24' E 018°40'0 0.0
2017-Aug-16 13:59N 54°24' E 018°40'0 0.0
2017-Aug-16 13:29N 54°24' E 018°40'0 0.0
2017-Aug-16 12:59N 54°24' E 018°40'0 0.0
2017-Aug-16 12:29N 54°24' E 018°40'0 0.0
2017-Aug-16 11:59N 54°24' E 018°40'0 0.0
2017-Aug-16 11:29N 54°24' E 018°40'0 0.0
2017-Aug-16 10:59N 54°24' E 018°40'0 0.0
2017-Aug-16 10:29N 54°24' E 018°40'0 0.0
2017-Aug-16 09:59N 54°24' E 018°40'  

Dump ship's entire track history